Time,TemperatureF,DewpointF,PressureIn,WindDirection,WindDirectionDegrees,WindSpeedMPH,WindSpeedGustMPH,Humidity,HourlyPrecipIn,Conditions,Clouds,dailyrainin,SoftwareType,DateUTC
2013-03-21 00:02:00,47.7,45.1,0.00,NNW,333,1.9,4.4,91,0.00,,,0.00,WUHU216CR1000,2013-03-21 07:02:00,
2013-03-21 00:07:00,47.7,45.1,0.00,NNW,333,1.9,4.4,91,0.00,,,0.00,WUHU216CR1000,2013-03-21 07:07:00,
2013-03-21 00:17:00,47.7,45.1,0.00,NNW,333,1.9,4.4,91,0.00,,,0.00,WUHU216CR1000,2013-03-21 07:17:00,
2013-03-21 00:22:00,47.7,45.1,0.00,NNW,333,1.9,4.4,91,0.00,,,0.00,WUHU216CR1000,2013-03-21 07:22:00,
2013-03-21 00:32:00,47.4,45.4,0.00,NW,313,3.0,4.4,93,0.47,,,0.47,WUHU216CR1000,2013-03-21 07:32:00,
2013-03-21 00:37:00,47.4,45.4,0.00,NW,313,3.0,4.4,93,0.47,,,0.47,WUHU216CR1000,2013-03-21 07:37:00,
2013-03-21 00:47:00,46.9,45.0,0.00,NW,304,3.5,4.8,93,0.47,,,0.47,WUHU216CR1000,2013-03-21 07:47:00,
2013-03-21 00:52:00,46.9,45.0,0.00,NW,304,3.5,4.8,93,0.47,,,0.47,WUHU216CR1000,2013-03-21 07:52:00,
2013-03-21 01:02:00,46.7,45.0,0.00,NW,304,4.4,6.6,94,0.47,,,0.47,WUHU216CR1000,2013-03-21 08:02:00,
2013-03-21 01:07:00,46.7,45.0,0.00,NW,304,4.4,6.6,94,0.47,,,0.47,WUHU216CR1000,2013-03-21 08:07:00,
2013-03-21 01:17:00,46.3,44.7,0.00,NW,316,4.6,6.8,94,0.00,,,0.47,WUHU216CR1000,2013-03-21 08:17:00,
2013-03-21 01:22:00,46.3,44.7,0.00,NW,316,4.6,6.8,94,0.00,,,0.47,WUHU216CR1000,2013-03-21 08:22:00,
2013-03-21 01:32:00,46.4,44.7,0.00,NW,325,5.1,8.3,94,0.00,,,0.47,WUHU216CR1000,2013-03-21 08:32:00,
2013-03-21 01:37:00,46.4,44.7,0.00,NW,325,5.1,8.3,94,0.00,,,0.47,WUHU216CR1000,2013-03-21 08:37:00,
2013-03-21 01:47:00,45.8,43.8,0.00,North,6,2.7,4.4,93,0.00,,,0.47,WUHU216CR1000,2013-03-21 08:47:00,
2013-03-21 01:52:00,45.8,43.8,0.00,North,6,2.7,4.4,93,0.00,,,0.47,WUHU216CR1000,2013-03-21 08:52:00,
2013-03-21 02:02:00,45.1,43.1,0.00,North,350,2.4,4.2,93,0.00,,,0.47,WUHU216CR1000,2013-03-21 09:02:00,
2013-03-21 02:07:00,45.1,43.1,0.00,North,350,2.4,4.2,93,0.00,,,0.47,WUHU216CR1000,2013-03-21 09:07:00,
2013-03-21 02:17:00,44.5,42.3,0.00,NNW,338,3.9,6.1,92,0.00,,,0.47,WUHU216CR1000,2013-03-21 09:17:00,
2013-03-21 02:22:00,44.5,42.3,0.00,NNW,338,3.9,6.1,92,0.00,,,0.47,WUHU216CR1000,2013-03-21 09:22:00,
2013-03-21 02:32:00,44.5,41.6,0.00,NW,320,4.2,7.0,89,0.00,,,0.47,WUHU216CR1000,2013-03-21 09:32:00,
2013-03-21 02:37:00,44.5,41.6,0.00,NW,320,4.2,7.0,89,0.00,,,0.47,WUHU216CR1000,2013-03-21 09:37:00,
2013-03-21 02:47:00,44.0,40.7,0.00,NW,304,3.1,6.8,88,0.00,,,0.47,WUHU216CR1000,2013-03-21 09:47:00,
2013-03-21 02:52:00,44.0,40.7,0.00,NW,304,3.1,6.8,88,0.00,,,0.47,WUHU216CR1000,2013-03-21 09:52:00,
2013-03-21 03:02:00,43.4,39.9,0.00,WNW,292,2.6,4.4,88,0.00,,,0.47,WUHU216CR1000,2013-03-21 10:02:00,
2013-03-21 03:07:00,43.4,39.9,0.00,WNW,292,2.6,4.4,88,0.00,,,0.47,WUHU216CR1000,2013-03-21 10:07:00,
2013-03-21 03:17:00,43.4,40.0,0.00,West,266,2.3,5.0,88,0.00,,,0.47,WUHU216CR1000,2013-03-21 10:17:00,
2013-03-21 03:22:00,43.4,40.0,0.00,West,266,2.3,5.0,88,0.00,,,0.47,WUHU216CR1000,2013-03-21 10:22:00,
2013-03-21 03:32:00,43.1,39.5,0.00,WNW,287,3.5,6.8,87,0.00,,,0.47,WUHU216CR1000,2013-03-21 10:32:00,
2013-03-21 03:37:00,43.1,39.5,0.00,WNW,287,3.5,6.8,87,0.00,,,0.47,WUHU216CR1000,2013-03-21 10:37:00,
2013-03-21 03:47:00,42.5,38.9,0.00,WNW,297,2.3,3.7,87,0.00,,,0.47,WUHU216CR1000,2013-03-21 10:47:00,
2013-03-21 03:52:00,42.5,38.9,0.00,WNW,297,2.3,3.7,87,0.00,,,0.47,WUHU216CR1000,2013-03-21 10:52:00,
2013-03-21 04:02:00,42.0,38.4,0.00,NNW,341,1.9,3.9,87,0.00,,,0.47,WUHU216CR1000,2013-03-21 11:02:00,
2013-03-21 04:07:00,42.0,38.4,0.00,NNW,341,1.9,3.9,87,0.00,,,0.47,WUHU216CR1000,2013-03-21 11:07:00,
2013-03-21 04:17:00,42.1,38.7,0.00,NW,326,4.0,6.6,88,0.00,,,0.47,WUHU216CR1000,2013-03-21 11:17:00,
2013-03-21 04:22:00,42.1,38.7,0.00,NW,326,4.0,6.6,88,0.00,,,0.47,WUHU216CR1000,2013-03-21 11:22:00,
2013-03-21 04:32:00,42.6,38.7,0.00,NNW,335,1.9,3.5,86,0.00,,,0.47,WUHU216CR1000,2013-03-21 11:32:00,
2013-03-21 04:37:00,42.6,38.7,0.00,NNW,335,1.9,3.5,86,0.00,,,0.47,WUHU216CR1000,2013-03-21 11:37:00,
2013-03-21 04:47:00,38.4,34.9,0.00,East,93,2.5,4.2,87,0.00,,,0.47,WUHU216CR1000,2013-03-21 11:47:00,
2013-03-21 04:52:00,38.4,34.9,0.00,East,93,2.5,4.2,87,0.00,,,0.47,WUHU216CR1000,2013-03-21 11:52:00,
2013-03-21 05:02:00,37.5,35.1,0.00,SE,131,2.1,4.6,91,0.00,,,0.47,WUHU216CR1000,2013-03-21 12:02:00,
2013-03-21 05:07:00,37.5,35.1,0.00,SE,131,2.1,4.6,91,0.00,,,0.47,WUHU216CR1000,2013-03-21 12:07:00,
2013-03-21 05:17:00,37.1,35.1,0.00,South,170,2.4,3.9,92,0.00,,,0.47,WUHU216CR1000,2013-03-21 12:17:00,
2013-03-21 05:22:00,37.1,35.1,0.00,South,170,2.4,3.9,92,0.00,,,0.47,WUHU216CR1000,2013-03-21 12:22:00,
2013-03-21 05:32:00,36.8,35.1,0.00,South,184,2.2,3.1,93,0.00,,,0.47,WUHU216CR1000,2013-03-21 12:32:00,
2013-03-21 05:37:00,36.8,35.1,0.00,South,184,2.2,3.1,93,0.00,,,0.47,WUHU216CR1000,2013-03-21 12:37:00,
2013-03-21 05:47:00,37.4,35.8,0.00,WNW,282,1.8,3.3,94,0.00,,,0.47,WUHU216CR1000,2013-03-21 12:47:00,
2013-03-21 05:52:00,37.4,35.8,0.00,WNW,282,1.8,3.3,94,0.00,,,0.47,WUHU216CR1000,2013-03-21 12:52:00,
2013-03-21 06:02:00,37.5,35.8,0.00,NNW,337,0.9,2.2,94,0.00,,,0.47,WUHU216CR1000,2013-03-21 13:02:00,
2013-03-21 06:07:00,37.5,35.8,0.00,NNW,337,0.9,2.2,94,0.00,,,0.47,WUHU216CR1000,2013-03-21 13:07:00,
2013-03-21 06:17:00,36.5,34.9,0.00,ESE,123,0.6,1.8,94,0.00,,,0.47,WUHU216CR1000,2013-03-21 13:17:00,
2013-03-21 06:22:00,36.5,34.9,0.00,ESE,123,0.6,1.8,94,0.00,,,0.47,WUHU216CR1000,2013-03-21 13:22:00,
2013-03-21 06:32:00,35.9,34.4,0.00,ENE,74,0.9,2.0,94,0.00,,,0.47,WUHU216CR1000,2013-03-21 13:32:00,
2013-03-21 06:37:00,35.9,34.4,0.00,ENE,74,0.9,2.0,94,0.00,,,0.47,WUHU216CR1000,2013-03-21 13:37:00,
2013-03-21 06:47:00,35.7,34.4,0.00,North,0,1.1,2.2,95,0.00,,,0.47,WUHU216CR1000,2013-03-21 13:47:00,
2013-03-21 06:52:00,35.7,34.4,0.00,North,0,1.1,2.2,95,0.00,,,0.47,WUHU216CR1000,2013-03-21 13:52:00,
2013-03-21 07:02:00,35.5,34.1,0.00,South,181,1.3,2.6,95,0.00,,,0.47,WUHU216CR1000,2013-03-21 14:02:00,
2013-03-21 07:07:00,35.5,34.1,0.00,South,181,1.3,2.6,95,0.00,,,0.47,WUHU216CR1000,2013-03-21 14:07:00,
2013-03-21 07:17:00,35.1,33.9,0.00,North,0,0.0,0.0,95,0.00,,,0.47,WUHU216CR1000,2013-03-21 14:17:00,
2013-03-21 07:22:00,35.1,33.9,0.00,North,0,0.0,0.0,95,0.00,,,0.47,WUHU216CR1000,2013-03-21 14:22:00,
2013-03-21 07:32:00,36.0,34.8,0.00,NW,325,0.1,1.1,95,0.00,,,0.47,WUHU216CR1000,2013-03-21 14:32:00,
2013-03-21 07:37:00,36.0,34.8,0.00,NW,325,0.1,1.1,95,0.00,,,0.47,WUHU216CR1000,2013-03-21 14:37:00,
2013-03-21 07:47:00,36.9,35.6,0.00,SE,130,0.7,1.5,95,0.00,,,0.47,WUHU216CR1000,2013-03-21 14:47:00,
2013-03-21 07:52:00,36.9,35.6,0.00,SE,130,0.7,1.5,95,0.00,,,0.47,WUHU216CR1000,2013-03-21 14:52:00,
2013-03-21 08:02:00,38.8,37.5,0.00,WNW,284,0.0,0.4,95,0.00,,,0.47,WUHU216CR1000,2013-03-21 15:02:00,
2013-03-21 08:07:00,38.8,37.5,0.00,WNW,284,0.0,0.4,95,0.00,,,0.47,WUHU216CR1000,2013-03-21 15:07:00,
2013-03-21 08:17:00,40.0,38.3,0.00,South,182,0.8,2.0,94,0.00,,,0.47,WUHU216CR1000,2013-03-21 15:17:00,
2013-03-21 08:22:00,40.0,38.3,0.00,South,182,0.8,2.0,94,0.00,,,0.47,WUHU216CR1000,2013-03-21 15:22:00,
2013-03-21 08:32:00,40.9,39.1,0.00,SSE,155,0.9,2.0,93,0.00,,,0.47,WUHU216CR1000,2013-03-21 15:32:00,
2013-03-21 08:37:00,40.9,39.1,0.00,SSE,155,0.9,2.0,93,0.00,,,0.47,WUHU216CR1000,2013-03-21 15:37:00,
2013-03-21 08:47:00,42.3,40.3,0.00,SE,136,1.2,2.2,93,0.00,,,0.47,WUHU216CR1000,2013-03-21 15:47:00,
2013-03-21 08:52:00,42.3,40.3,0.00,SE,136,1.2,2.2,93,0.00,,,0.47,WUHU216CR1000,2013-03-21 15:52:00,
2013-03-21 09:02:00,44.3,41.7,0.00,South,183,0.9,1.8,90,0.00,,,0.47,WUHU216CR1000,2013-03-21 16:02:00,
2013-03-21 09:07:00,44.3,41.7,0.00,South,183,0.9,1.8,90,0.00,,,0.47,WUHU216CR1000,2013-03-21 16:07:00,
2013-03-21 09:17:00,46.2,42.5,0.00,West,265,0.7,2.6,87,0.00,,,0.47,WUHU216CR1000,2013-03-21 16:17:00,
2013-03-21 09:22:00,46.2,42.5,0.00,West,265,0.7,2.6,87,0.00,,,0.47,WUHU216CR1000,2013-03-21 16:22:00,
2013-03-21 09:32:00,47.4,41.9,0.00,NW,308,3.1,7.5,81,0.00,,,0.47,WUHU216CR1000,2013-03-21 16:32:00,
2013-03-21 09:37:00,47.4,41.9,0.00,NW,308,3.1,7.5,81,0.00,,,0.47,WUHU216CR1000,2013-03-21 16:37:00,
2013-03-21 09:47:00,48.0,42.0,0.00,NW,321,4.2,7.9,80,0.00,,,0.47,WUHU216CR1000,2013-03-21 16:47:00,
2013-03-21 09:52:00,48.0,42.0,0.00,NW,321,4.2,7.9,80,0.00,,,0.47,WUHU216CR1000,2013-03-21 16:52:00,
2013-03-21 10:02:00,49.3,42.0,0.00,NW,322,4.6,8.8,76,0.00,,,0.47,WUHU216CR1000,2013-03-21 17:02:00,
2013-03-21 10:07:00,49.3,42.0,0.00,NW,322,4.6,8.8,76,0.00,,,0.47,WUHU216CR1000,2013-03-21 17:07:00,
2013-03-21 10:17:00,50.7,42.8,0.00,WNW,292,5.2,9.9,74,0.00,,,0.47,WUHU216CR1000,2013-03-21 17:17:00,
2013-03-21 10:22:00,50.7,42.8,0.00,WNW,292,5.2,9.9,74,0.00,,,0.47,WUHU216CR1000,2013-03-21 17:22:00,
2013-03-21 10:32:00,51.7,43.0,0.00,NW,311,3.4,8.1,72,0.00,,,0.47,WUHU216CR1000,2013-03-21 17:32:00,
2013-03-21 10:37:00,51.7,43.0,0.00,NW,311,3.4,8.1,72,0.00,,,0.47,WUHU216CR1000,2013-03-21 17:37:00,
2013-03-21 10:47:00,52.8,42.5,0.00,NW,318,4.9,9.2,68,0.00,,,0.47,WUHU216CR1000,2013-03-21 17:47:00,
2013-03-21 10:52:00,52.8,42.5,0.00,NW,318,4.9,9.2,68,0.00,,,0.47,WUHU216CR1000,2013-03-21 17:52:00,
2013-03-21 11:02:00,53.7,42.8,0.00,NW,315,3.6,6.6,66,0.00,,,0.47,WUHU216CR1000,2013-03-21 18:02:00,
2013-03-21 11:07:00,53.7,42.8,0.00,NW,315,3.6,6.6,66,0.00,,,0.47,WUHU216CR1000,2013-03-21 18:07:00,
2013-03-21 11:17:00,54.9,43.2,0.00,WNW,300,2.7,6.1,65,0.00,,,0.47,WUHU216CR1000,2013-03-21 18:17:00,
2013-03-21 11:22:00,54.9,43.2,0.00,WNW,300,2.7,6.1,65,0.00,,,0.47,WUHU216CR1000,2013-03-21 18:22:00,
2013-03-21 11:32:00,55.7,42.8,0.00,NNW,345,3.0,6.1,62,0.00,,,0.47,WUHU216CR1000,2013-03-21 18:32:00,
2013-03-21 11:37:00,55.7,42.8,0.00,NNW,345,3.0,6.1,62,0.00,,,0.47,WUHU216CR1000,2013-03-21 18:37:00,
2013-03-21 11:47:00,56.2,41.9,0.00,NNE,19,3.0,7.5,59,0.00,,,0.47,WUHU216CR1000,2013-03-21 18:47:00,
2013-03-21 11:52:00,56.2,41.9,0.00,NNE,19,3.0,7.5,59,0.00,,,0.47,WUHU216CR1000,2013-03-21 18:52:00,
2013-03-21 12:02:00,57.8,42.4,0.00,NNW,344,2.4,8.1,56,0.00,,,0.47,WUHU216CR1000,2013-03-21 19:02:00,
2013-03-21 12:07:00,57.8,42.4,0.00,NNW,344,2.4,8.1,56,0.00,,,0.47,WUHU216CR1000,2013-03-21 19:07:00,
2013-03-21 12:17:00,59.1,42.7,0.00,WNW,302,2.3,6.1,55,0.00,,,0.47,WUHU216CR1000,2013-03-21 19:17:00,
2013-03-21 12:22:00,59.1,42.7,0.00,WNW,302,2.3,6.1,55,0.00,,,0.47,WUHU216CR1000,2013-03-21 19:22:00,
2013-03-21 12:32:00,58.5,42.1,0.00,North,354,2.9,7.5,54,0.00,,,0.47,WUHU216CR1000,2013-03-21 19:32:00,
2013-03-21 12:37:00,58.5,42.1,0.00,North,354,2.9,7.5,54,0.00,,,0.47,WUHU216CR1000,2013-03-21 19:37:00,
2013-03-21 12:47:00,59.6,43.6,0.00,NNW,329,2.6,9.0,55,0.00,,,0.47,WUHU216CR1000,2013-03-21 19:47:00,
2013-03-21 12:52:00,59.6,43.6,0.00,NNW,329,2.6,9.0,55,0.00,,,0.47,WUHU216CR1000,2013-03-21 19:52:00,
2013-03-21 13:02:00,60.5,43.6,0.00,WNW,297,2.3,6.8,54,0.00,,,0.47,WUHU216CR1000,2013-03-21 20:02:00,
2013-03-21 13:07:00,60.5,43.6,0.00,WNW,297,2.3,6.8,54,0.00,,,0.47,WUHU216CR1000,2013-03-21 20:07:00,
2013-03-21 13:17:00,61.0,43.6,0.00,North,356,2.9,6.8,53,0.00,,,0.47,WUHU216CR1000,2013-03-21 20:17:00,
2013-03-21 13:22:00,61.0,43.6,0.00,North,356,2.9,6.8,53,0.00,,,0.47,WUHU216CR1000,2013-03-21 20:22:00,
2013-03-21 13:32:00,61.6,43.9,0.00,NW,313,3.0,7.5,52,0.00,,,0.47,WUHU216CR1000,2013-03-21 20:32:00,
2013-03-21 13:37:00,61.6,43.9,0.00,NW,313,3.0,7.5,52,0.00,,,0.47,WUHU216CR1000,2013-03-21 20:37:00,
2013-03-21 13:47:00,62.8,44.0,0.00,NNW,348,3.4,7.2,50,0.00,,,0.47,WUHU216CR1000,2013-03-21 20:47:00,
2013-03-21 13:52:00,62.8,44.0,0.00,NNW,348,3.4,7.2,50,0.00,,,0.47,WUHU216CR1000,2013-03-21 20:52:00,
2013-03-21 14:02:00,62.8,42.2,0.00,NNE,12,3.3,7.2,47,0.00,,,0.47,WUHU216CR1000,2013-03-21 21:02:00,
2013-03-21 14:07:00,62.8,42.2,0.00,NNE,12,3.3,7.2,47,0.00,,,0.47,WUHU216CR1000,2013-03-21 21:07:00,
2013-03-21 14:17:00,63.2,42.2,0.00,NNW,338,2.8,8.6,46,0.00,,,0.47,WUHU216CR1000,2013-03-21 21:17:00,
2013-03-21 14:22:00,63.2,42.2,0.00,NNW,338,2.8,8.6,46,0.00,,,0.47,WUHU216CR1000,2013-03-21 21:22:00,
2013-03-21 14:32:00,63.7,42.8,0.00,SSE,157,1.6,4.2,47,0.00,,,0.47,WUHU216CR1000,2013-03-21 21:32:00,
2013-03-21 14:37:00,63.7,42.8,0.00,SSE,157,1.6,4.2,47,0.00,,,0.47,WUHU216CR1000,2013-03-21 21:37:00,
2013-03-21 14:47:00,64.4,43.1,0.00,West,272,2.6,5.9,46,0.00,,,0.47,WUHU216CR1000,2013-03-21 21:47:00,
2013-03-21 14:52:00,64.4,43.1,0.00,West,272,2.6,5.9,46,0.00,,,0.47,WUHU216CR1000,2013-03-21 21:52:00,
2013-03-21 15:02:00,64.8,43.0,0.00,NE,38,2.1,6.1,45,0.00,,,0.47,WUHU216CR1000,2013-03-21 22:02:00,
2013-03-21 15:07:00,64.8,43.0,0.00,NE,38,2.1,6.1,45,0.00,,,0.47,WUHU216CR1000,2013-03-21 22:07:00,
2013-03-21 15:17:00,65.1,43.3,0.00,North,8,2.3,6.6,45,0.00,,,0.47,WUHU216CR1000,2013-03-21 22:17:00,
2013-03-21 15:22:00,65.1,43.3,0.00,North,8,2.3,6.6,45,0.00,,,0.47,WUHU216CR1000,2013-03-21 22:22:00,
2013-03-21 15:32:00,65.4,43.5,0.00,NNE,21,2.4,7.5,45,0.00,,,0.47,WUHU216CR1000,2013-03-21 22:32:00,
2013-03-21 15:37:00,65.4,43.5,0.00,NNE,21,2.4,7.5,45,0.00,,,0.47,WUHU216CR1000,2013-03-21 22:37:00,
2013-03-21 15:47:00,65.6,45.3,0.00,SSE,167,3.1,10.1,48,0.00,,,0.47,WUHU216CR1000,2013-03-21 22:47:00,
2013-03-21 15:52:00,65.6,45.3,0.00,SSE,167,3.1,10.1,48,0.00,,,0.47,WUHU216CR1000,2013-03-21 22:52:00,
2013-03-21 16:02:00,65.5,45.9,0.00,SW,231,6.0,12.7,49,0.00,,,0.47,WUHU216CR1000,2013-03-21 23:02:00,
2013-03-21 16:07:00,65.5,45.9,0.00,SW,231,6.0,12.7,49,0.00,,,0.47,WUHU216CR1000,2013-03-21 23:07:00,
2013-03-21 16:17:00,65.1,45.7,0.00,SW,227,6.6,12.3,49,0.00,,,0.47,WUHU216CR1000,2013-03-21 23:17:00,
2013-03-21 16:22:00,65.1,45.7,0.00,SW,227,6.6,12.3,49,0.00,,,0.47,WUHU216CR1000,2013-03-21 23:22:00,
2013-03-21 16:32:00,65.3,45.3,0.00,WSW,245,5.9,12.5,48,0.00,,,0.47,WUHU216CR1000,2013-03-21 23:32:00,
2013-03-21 16:37:00,65.3,45.3,0.00,WSW,245,5.9,12.5,48,0.00,,,0.47,WUHU216CR1000,2013-03-21 23:37:00,
2013-03-21 16:47:00,65.6,45.3,0.00,WSW,237,5.3,9.9,48,0.00,,,0.47,WUHU216CR1000,2013-03-21 23:47:00,
2013-03-21 16:52:00,65.6,45.3,0.00,WSW,237,5.3,9.9,48,0.00,,,0.47,WUHU216CR1000,2013-03-21 23:52:00,
2013-03-21 17:02:00,65.6,45.3,0.00,SW,235,5.7,9.4,48,0.00,,,0.47,WUHU216CR1000,2013-03-22 00:02:00,
2013-03-21 17:07:00,65.6,45.3,0.00,SW,235,5.7,9.4,48,0.00,,,0.47,WUHU216CR1000,2013-03-22 00:07:00,
2013-03-21 17:17:00,65.2,44.0,0.00,SW,234,5.4,10.1,46,0.00,,,0.47,WUHU216CR1000,2013-03-22 00:17:00,
2013-03-21 17:22:00,65.2,44.0,0.00,SW,234,5.4,10.1,46,0.00,,,0.47,WUHU216CR1000,2013-03-22 00:22:00,
2013-03-21 17:32:00,65.5,43.4,0.00,WSW,243,5.4,9.4,45,0.00,,,0.47,WUHU216CR1000,2013-03-22 00:32:00,
2013-03-21 17:37:00,65.5,43.4,0.00,WSW,243,5.4,9.4,45,0.00,,,0.47,WUHU216CR1000,2013-03-22 00:37:00,
2013-03-21 17:47:00,65.2,44.3,0.00,SW,232,4.8,8.8,47,0.00,,,0.47,WUHU216CR1000,2013-03-22 00:47:00,
2013-03-21 17:52:00,65.2,44.3,0.00,SW,232,4.8,8.8,47,0.00,,,0.47,WUHU216CR1000,2013-03-22 00:52:00,
2013-03-21 18:02:00,64.5,44.0,0.00,SW,215,4.3,7.2,47,0.00,,,0.47,WUHU216CR1000,2013-03-22 01:02:00,
2013-03-21 18:07:00,64.5,44.0,0.00,SW,215,4.3,7.2,47,0.00,,,0.47,WUHU216CR1000,2013-03-22 01:07:00,
2013-03-21 18:17:00,64.1,43.5,0.00,SW,222,3.5,6.4,47,0.00,,,0.47,WUHU216CR1000,2013-03-22 01:17:00,
2013-03-21 18:22:00,64.1,43.5,0.00,SW,222,3.5,6.4,47,0.00,,,0.47,WUHU216CR1000,2013-03-22 01:22:00,
2013-03-21 18:32:00,64.1,43.5,0.00,SW,219,2.4,4.8,47,0.00,,,0.47,WUHU216CR1000,2013-03-22 01:32:00,
2013-03-21 18:37:00,64.1,43.5,0.00,SW,219,2.4,4.8,47,0.00,,,0.47,WUHU216CR1000,2013-03-22 01:37:00,
2013-03-21 18:47:00,62.1,44.8,0.00,South,176,3.1,5.5,53,0.00,,,0.47,WUHU216CR1000,2013-03-22 01:47:00,
2013-03-21 18:52:00,62.1,44.8,0.00,South,176,3.1,5.5,53,0.00,,,0.47,WUHU216CR1000,2013-03-22 01:52:00,
2013-03-21 19:02:00,58.6,46.2,0.00,SE,134,4.1,6.4,64,0.00,,,0.47,WUHU216CR1000,2013-03-22 02:02:00,
2013-03-21 19:07:00,58.6,46.2,0.00,SE,134,4.1,6.4,64,0.00,,,0.47,WUHU216CR1000,2013-03-22 02:07:00,
2013-03-21 19:17:00,55.4,45.8,0.00,ESE,107,3.8,7.0,70,0.00,,,0.47,WUHU216CR1000,2013-03-22 02:17:00,
2013-03-21 19:22:00,55.4,45.8,0.00,ESE,107,3.8,7.0,70,0.00,,,0.47,WUHU216CR1000,2013-03-22 02:22:00,
2013-03-21 19:32:00,53.8,45.1,0.00,ESE,120,3.0,5.7,72,0.00,,,0.47,WUHU216CR1000,2013-03-22 02:32:00,
2013-03-21 19:37:00,53.8,45.1,0.00,ESE,120,3.0,5.7,72,0.00,,,0.47,WUHU216CR1000,2013-03-22 02:37:00,
2013-03-21 19:47:00,52.7,44.8,0.00,ESE,117,1.6,3.9,74,0.00,,,0.47,WUHU216CR1000,2013-03-22 02:47:00,
2013-03-21 19:52:00,52.7,44.8,0.00,ESE,117,1.6,3.9,74,0.00,,,0.47,WUHU216CR1000,2013-03-22 02:52:00,
2013-03-21 20:02:00,52.4,45.4,0.00,North,354,1.7,3.7,77,0.00,,,0.47,WUHU216CR1000,2013-03-22 03:02:00,
2013-03-21 20:07:00,52.4,45.4,0.00,North,354,1.7,3.7,77,0.00,,,0.47,WUHU216CR1000,2013-03-22 03:07:00,
2013-03-21 20:12:00,52.4,45.4,0.00,North,354,1.7,3.7,77,0.00,,,0.47,WUHU216CR1000,2013-03-22 03:12:00,
2013-03-21 20:17:00,51.8,45.0,0.00,NE,40,1.2,3.1,78,0.00,,,0.47,WUHU216CR1000,2013-03-22 03:17:00,
2013-03-21 20:22:00,51.8,45.0,0.00,NE,40,1.2,3.1,78,0.00,,,0.47,WUHU216CR1000,2013-03-22 03:22:00,
2013-03-21 20:32:00,51.3,44.8,0.00,North,4,2.0,4.2,79,0.00,,,0.47,WUHU216CR1000,2013-03-22 03:32:00,
2013-03-21 20:37:00,51.3,44.8,0.00,North,4,2.0,4.2,79,0.00,,,0.47,WUHU216CR1000,2013-03-22 03:37:00,
2013-03-21 20:47:00,53.4,41.5,0.00,North,9,3.9,6.6,64,0.00,,,0.47,WUHU216CR1000,2013-03-22 03:47:00,
2013-03-21 20:52:00,53.4,41.5,0.00,North,9,3.9,6.6,64,0.00,,,0.47,WUHU216CR1000,2013-03-22 03:52:00,
2013-03-21 21:02:00,53.1,40.7,0.00,NNE,20,2.6,5.9,63,0.00,,,0.47,WUHU216CR1000,2013-03-22 04:02:00,
2013-03-21 21:03:00,53.1,40.7,0.00,NNE,20,2.6,5.9,63,0.00,,,0.47,WUHU216CR1000,2013-03-22 04:03:00,
2013-03-21 21:08:00,53.1,40.7,0.00,NNE,20,2.6,5.9,63,0.00,,,0.47,WUHU216CR1000,2013-03-22 04:08:00,
2013-03-21 21:17:00,48.3,42.1,0.00,South,174,0.7,4.4,79,0.00,,,0.47,WUHU216CR1000,2013-03-22 04:17:00,
2013-03-21 21:22:00,48.3,42.1,0.00,South,174,0.7,4.4,79,0.00,,,0.47,WUHU216CR1000,2013-03-22 04:22:00,
2013-03-21 21:32:00,47.6,42.1,0.00,SSE,165,2.5,3.9,81,0.00,,,0.47,WUHU216CR1000,2013-03-22 04:32:00,
2013-03-21 21:37:00,47.6,42.1,0.00,SSE,165,2.5,3.9,81,0.00,,,0.47,WUHU216CR1000,2013-03-22 04:37:00,
2013-03-21 21:47:00,47.0,41.4,0.00,NE,39,3.0,6.1,81,0.00,,,0.47,WUHU216CR1000,2013-03-22 04:47:00,
2013-03-21 21:52:00,47.0,41.4,0.00,NE,39,3.0,6.1,81,0.00,,,0.47,WUHU216CR1000,2013-03-22 04:52:00,
2013-03-21 22:02:00,50.6,39.2,0.00,North,1,3.7,7.5,65,0.00,,,0.47,WUHU216CR1000,2013-03-22 05:02:00,
2013-03-21 22:07:00,50.6,39.2,0.00,North,1,3.7,7.5,65,0.00,,,0.47,WUHU216CR1000,2013-03-22 05:07:00,
2013-03-21 22:17:00,50.6,38.7,0.00,North,8,3.6,7.7,64,0.00,,,0.47,WUHU216CR1000,2013-03-22 05:17:00,
2013-03-21 22:22:00,50.6,38.7,0.00,North,8,3.6,7.7,64,0.00,,,0.47,WUHU216CR1000,2013-03-22 05:22:00,
2013-03-21 22:32:00,50.4,38.4,0.00,NNE,17,3.8,9.0,63,0.00,,,0.47,WUHU216CR1000,2013-03-22 05:32:00,
2013-03-21 22:37:00,50.4,38.4,0.00,NNE,17,3.8,9.0,63,0.00,,,0.47,WUHU216CR1000,2013-03-22 05:37:00,
2013-03-21 22:47:00,49.9,38.5,0.00,North,354,3.4,6.6,65,0.00,,,0.47,WUHU216CR1000,2013-03-22 05:47:00,
2013-03-21 22:52:00,49.9,38.5,0.00,North,354,3.4,6.6,65,0.00,,,0.47,WUHU216CR1000,2013-03-22 05:52:00,
2013-03-21 23:02:00,47.9,39.1,0.00,WSW,247,1.6,3.9,71,0.00,,,0.47,WUHU216CR1000,2013-03-22 06:02:00,
2013-03-21 23:07:00,47.9,39.1,0.00,WSW,247,1.6,3.9,71,0.00,,,0.47,WUHU216CR1000,2013-03-22 06:07:00,
2013-03-21 23:17:00,46.9,39.2,0.00,NNW,334,1.4,2.4,75,0.00,,,0.47,WUHU216CR1000,2013-03-22 06:17:00,
2013-03-21 23:22:00,46.9,39.2,0.00,NNW,334,1.4,2.4,75,0.00,,,0.47,WUHU216CR1000,2013-03-22 06:22:00,
2013-03-21 23:32:00,45.3,38.6,0.00,NNW,327,0.3,1.5,77,0.00,,,0.47,WUHU216CR1000,2013-03-22 06:32:00,
2013-03-21 23:37:00,45.3,38.6,0.00,NNW,327,0.3,1.5,77,0.00,,,0.47,WUHU216CR1000,2013-03-22 06:37:00,
2013-03-21 23:47:00,43.6,38.3,0.00,SSW,194,1.8,3.7,81,0.00,,,0.47,WUHU216CR1000,2013-03-22 06:47:00,
2013-03-21 23:52:00,43.6,38.3,0.00,SSW,194,1.8,3.7,81,0.00,,,0.47,WUHU216CR1000,2013-03-22 06:52:00,